createdAt,value
2024-02-28T00:02:56.190Z,101460.66
2024-02-28T00:07:57.610Z,101470.38
2024-02-28T00:13:00.306Z,101454.44
2024-02-28T00:18:01.766Z,101448.22
2024-02-28T00:23:03.277Z,101451.78
2024-02-28T00:28:04.930Z,101455.34
2024-02-28T00:33:06.417Z,101439.50
2024-02-28T00:38:07.873Z,101447.56
2024-02-28T00:43:09.277Z,101450.22
2024-02-28T00:48:10.868Z,101450.22
2024-02-28T00:53:12.337Z,101457.25
2024-02-28T00:58:14.196Z,101452.78
2024-02-28T01:03:16.637Z,101460.56
2024-02-28T01:08:18.768Z,101458.97
2024-02-28T01:13:20.190Z,101467.03
2024-02-28T01:18:21.655Z,101460.88
2024-02-28T01:23:23.135Z,101457.34
2024-02-28T01:28:24.683Z,101469.69
2024-02-28T01:33:26.256Z,101467.94
2024-02-28T01:38:27.946Z,101460.91
2024-02-28T01:43:29.403Z,101449.44
2024-02-28T01:48:31.029Z,101446.81
2024-02-28T01:53:32.554Z,101448.59
2024-02-28T01:58:34.231Z,101450.31
2024-02-28T02:03:35.764Z,101446.78
2024-02-28T02:08:37.995Z,101445.91
2024-02-28T02:13:52.580Z,101442.34
2024-02-28T02:18:54.256Z,101439.72
2024-02-28T02:23:55.774Z,101452.06
2024-02-28T02:28:57.235Z,101446.75
2024-02-28T02:33:58.759Z,101446.75
2024-02-28T02:39:00.220Z,101437.88
2024-02-28T02:44:01.656Z,101454.63
2024-02-28T02:49:03.079Z,101455.34
2024-02-28T02:54:04.500Z,101445.59
2024-02-28T02:59:05.926Z,101465.06
2024-02-28T03:04:07.349Z,101474.84
2024-02-28T03:09:08.889Z,101476.66
2024-02-28T03:14:10.419Z,101464.28
2024-02-28T03:19:12.207Z,101480.19
2024-02-28T03:24:13.766Z,101486.31
2024-02-28T03:29:15.190Z,101483.66
2024-02-28T03:34:16.608Z,101473.69
2024-02-28T03:39:18.324Z,101482.84
2024-02-28T03:44:20.279Z,101484.56
2024-02-28T03:49:21.704Z,101502.03
2024-02-28T03:54:23.139Z,101507.28
2024-02-28T03:59:24.877Z,101503.00
2024-02-28T04:04:26.303Z,101498.44
2024-02-28T04:09:27.831Z,101500.28
2024-02-28T04:14:29.291Z,101490.59
2024-02-28T04:19:34.926Z,101496.72
2024-02-28T04:24:36.395Z,101500.31
2024-02-28T04:29:39.043Z,101501.22
2024-02-28T04:34:40.638Z,101510.03
2024-02-28T04:39:42.119Z,101506.50
2024-02-28T04:44:43.722Z,101520.34
2024-02-28T04:49:45.481Z,101521.31
2024-02-28T04:54:46.967Z,101520.38
2024-02-28T04:59:48.529Z,101515.06
2024-02-28T05:04:50.095Z,101535.53
2024-02-28T05:09:51.639Z,101527.41
2024-02-28T05:14:55.250Z,101520.47
2024-02-28T05:19:58.276Z,101527.41
2024-02-28T05:24:59.796Z,101525.50
2024-02-28T05:30:02.754Z,101531.94
2024-02-28T05:35:04.728Z,101541.47
2024-02-28T05:40:08.638Z,101556.69
2024-02-28T05:45:10.202Z,101558.25
2024-02-28T05:50:11.733Z,101560.88
2024-02-28T05:55:13.344Z,101572.47
2024-02-28T06:00:15.170Z,101568.63
2024-02-28T06:05:16.698Z,101570.66
2024-02-28T06:10:18.149Z,101582.78
2024-02-28T06:15:19.766Z,101590.13
2024-02-28T06:20:21.256Z,101591.84
2024-02-28T06:25:24.736Z,101605.25
2024-02-28T06:30:26.214Z,101604.19
2024-02-28T06:35:28.009Z,101615.59
2024-02-28T06:40:33.248Z,101610.06
2024-02-28T06:45:35.235Z,101606.66
2024-02-28T06:50:36.709Z,101623.16
2024-02-28T06:55:38.165Z,101620.81
2024-02-28T07:00:39.672Z,101624.16
2024-02-28T07:05:41.170Z,101620.56
2024-02-28T07:10:44.535Z,101622.19
2024-02-28T07:15:46.553Z,101636.50
2024-02-28T07:20:48.095Z,101638.31
2024-02-28T07:25:49.576Z,101639.25
2024-02-28T07:30:51.043Z,101639.88
2024-02-28T07:35:53.699Z,101648.69
2024-02-28T07:40:55.128Z,101652.22
2024-02-28T07:45:56.662Z,101652.34
2024-02-28T07:50:58.174Z,101666.16
2024-02-28T07:55:59.810Z,101669.59
2024-02-28T08:01:01.291Z,101669.69
2024-02-28T08:06:02.883Z,101662.66
2024-02-28T08:11:04.507Z,101673.91
2024-02-28T08:16:07.865Z,101670.81
2024-02-28T08:21:10.026Z,101674.00
2024-02-28T08:26:11.963Z,101681.88
2024-02-28T08:31:13.492Z,101677.78
2024-02-28T08:36:16.280Z,101686.03
2024-02-28T08:41:18.357Z,101699.63
2024-02-28T08:46:19.842Z,101692.38
2024-02-28T08:51:21.342Z,101704.72
2024-02-28T08:56:22.784Z,101713.94
2024-02-28T09:01:24.358Z,101706.41
2024-02-28T09:06:26.019Z,101707.66
2024-02-28T09:11:27.559Z,101715.25
2024-02-28T09:16:29.710Z,101726.19
2024-02-28T09:21:31.457Z,101730.81
2024-02-28T09:26:32.906Z,101726.34
2024-02-28T09:31:34.532Z,101726.00
2024-02-28T09:36:44.357Z,101725.34
2024-02-28T09:41:50.253Z,101709.34
2024-02-28T09:46:52.967Z,101714.00
2024-02-28T09:51:54.696Z,101693.88
2024-02-28T09:56:56.302Z,101688.72
2024-02-28T10:01:58.747Z,101682.47
2024-02-28T10:07:11.232Z,101683.91
2024-02-28T10:12:12.729Z,101690.44
2024-02-28T10:17:14.148Z,101688.47
2024-02-28T10:22:15.583Z,101692.19
2024-02-28T10:27:18.157Z,101699.22
2024-02-28T10:32:19.710Z,101694.78
2024-02-28T10:37:22.024Z,101703.59
2024-02-28T10:42:27.885Z,101723.94
2024-02-28T10:47:29.468Z,101718.69
2024-02-28T10:52:34.776Z,101719.53
2024-02-28T10:57:38.010Z,101727.47
2024-02-28T11:02:40.134Z,101709.91
2024-02-28T11:07:43.748Z,101723.59
2024-02-28T11:12:55.913Z,101713.88
2024-02-28T11:18:08.930Z,101702.56
2024-02-28T11:23:10.886Z,101709.09
2024-02-28T11:28:12.337Z,101689.88
2024-02-28T11:33:14.079Z,101684.28
2024-02-28T11:38:15.948Z,101669.09
2024-02-28T11:43:19.751Z,101668.09
2024-02-28T11:48:21.674Z,101658.88
2024-02-28T11:53:24.128Z,101661.28
2024-02-28T11:58:26.191Z,101659.53
2024-02-28T12:03:28.198Z,101662.63
2024-02-28T12:08:30.766Z,101650.59
2024-02-28T12:13:32.415Z,101651.03
2024-02-28T12:18:33.992Z,101632.53
2024-02-28T12:23:35.493Z,101626.47
2024-02-28T12:28:36.953Z,101627.66
2024-02-28T12:33:38.739Z,101614.34
2024-02-28T12:38:41.485Z,101615.00
2024-02-28T12:43:43.000Z,101602.09
2024-02-28T12:48:45.300Z,101598.09
2024-02-28T12:53:50.276Z,101594.75
2024-02-28T12:58:53.361Z,101591.44
2024-02-28T13:03:55.352Z,101599.44
2024-02-28T13:08:56.872Z,101581.94
2024-02-28T13:13:58.545Z,101572.19
2024-02-28T13:19:00.074Z,101567.00
2024-02-28T13:24:02.529Z,101563.31
2024-02-28T13:29:03.996Z,101560.47
2024-02-28T13:34:05.577Z,101556.19
2024-02-28T13:39:08.276Z,101546.28
2024-02-28T13:44:10.375Z,101548.28
2024-02-28T13:49:13.313Z,101547.91
2024-02-28T13:54:14.865Z,101538.06
2024-02-28T13:59:16.281Z,101535.56
2024-02-28T14:04:17.935Z,101529.75
2024-02-28T14:09:19.438Z,101535.03
2024-02-28T14:14:20.972Z,101532.84
2024-02-28T14:19:22.437Z,101537.09
2024-02-28T14:24:23.906Z,101535.31
2024-02-28T14:29:25.392Z,101536.09
2024-02-28T14:34:27.065Z,101530.06
2024-02-28T14:39:28.560Z,101529.22
2024-02-28T14:44:29.988Z,101525.63
2024-02-28T14:49:31.417Z,101514.09
2024-02-28T14:54:32.922Z,101518.94
2024-02-28T14:59:34.363Z,101513.06
2024-02-28T15:04:35.941Z,101519.75
2024-02-28T15:09:40.746Z,101512.91
2024-02-28T15:14:42.704Z,101514.00
2024-02-28T15:19:44.118Z,101503.66
2024-02-28T15:24:45.685Z,101502.19
2024-02-28T15:29:47.137Z,101499.41
2024-02-28T15:34:48.576Z,101501.22
2024-02-28T15:39:51.262Z,101501.31
2024-02-28T15:44:52.736Z,101496.44
2024-02-28T15:49:55.607Z,101497.91
2024-02-28T15:54:58.596Z,101491.34
2024-02-28T16:00:00.183Z,101475.50
2024-02-28T16:05:02.456Z,101465.34
2024-02-28T16:10:04.220Z,101460.94
2024-02-28T16:15:09.006Z,101455.16
2024-02-28T16:20:10.748Z,101460.94
2024-02-28T16:25:12.387Z,101458.66
2024-02-28T16:30:14.201Z,101456.88
2024-02-28T16:35:15.648Z,101451.91
2024-02-28T16:40:17.111Z,101456.78
2024-02-28T16:45:18.653Z,101446.84
2024-02-28T16:50:20.678Z,101450.75
2024-02-28T16:55:22.459Z,101440.91
2024-02-28T17:00:24.989Z,101437.00
2024-02-28T17:05:26.894Z,101443.22
2024-02-28T17:10:28.866Z,101432.44
2024-02-28T17:15:31.165Z,101430.72
2024-02-28T17:20:32.602Z,101433.94
2024-02-28T17:25:34.078Z,101426.47
2024-02-28T17:30:35.536Z,101431.00
2024-02-28T17:35:37.060Z,101428.78
2024-02-28T17:40:38.570Z,101442.22
2024-02-28T17:45:40.114Z,101438.50
2024-02-28T17:50:41.652Z,101447.50
2024-02-28T17:55:43.093Z,101439.38
2024-02-28T18:00:47.392Z,101433.38
2024-02-28T18:05:49.022Z,101437.53
2024-02-28T18:10:50.458Z,101443.78
2024-02-28T18:15:52.087Z,101435.84
2024-02-28T18:20:55.068Z,101435.50
2024-02-28T18:25:56.568Z,101441.22
2024-02-28T18:30:58.029Z,101436.53
2024-02-28T18:35:59.481Z,101431.09
2024-02-28T18:41:02.555Z,101425.03
2024-02-28T18:46:04.609Z,101421.84
2024-02-28T18:51:06.133Z,101418.75
2024-02-28T18:56:07.661Z,101410.69
2024-02-28T19:01:11.320Z,101403.03
2024-02-28T19:06:13.021Z,101402.38
2024-02-28T19:11:14.989Z,101395.38
2024-02-28T19:16:16.885Z,101399.88
2024-02-28T19:21:18.388Z,101391.38
2024-02-28T19:26:19.918Z,101390.78
2024-02-28T19:31:21.407Z,101393.88
2024-02-28T19:36:22.972Z,101396.88
2024-02-28T19:41:24.423Z,101391.19
2024-02-28T19:46:26.143Z,101391.38
2024-02-28T19:51:27.609Z,101392.44
2024-02-28T19:56:29.057Z,101388.38
2024-02-28T20:01:31.229Z,101386.31
2024-02-28T20:06:33.065Z,101371.72
2024-02-28T20:11:34.713Z,101376.00
2024-02-28T20:16:40.713Z,101373.47
2024-02-28T20:21:42.734Z,101364.53
2024-02-28T20:26:44.324Z,101359.78
2024-02-28T20:31:45.849Z,101358.81
2024-02-28T20:36:47.850Z,101352.34
2024-02-28T20:41:49.474Z,101343.03
2024-02-28T20:46:51.282Z,101350.53
2024-02-28T20:51:53.274Z,101341.28
2024-02-28T20:57:02.047Z,101345.81
2024-02-28T21:02:11.287Z,101341.31
2024-02-28T21:07:14.227Z,101336.19
2024-02-28T21:12:16.655Z,101335.31
2024-02-28T21:17:20.148Z,101336.31
2024-02-28T21:22:21.584Z,101320.50
2024-02-28T21:27:23.532Z,101326.38
2024-02-28T21:32:25.737Z,101320.44
2024-02-28T21:37:27.165Z,101299.97
2024-02-28T21:42:29.100Z,101293.41
2024-02-28T21:47:30.751Z,101298.69
2024-02-28T21:52:32.538Z,101292.06
2024-02-28T21:57:34.218Z,101286.25
2024-02-28T22:02:35.921Z,101293.53
2024-02-28T22:07:37.375Z,101291.78
2024-02-28T22:12:40.285Z,101287.41
2024-02-28T22:17:42.577Z,101279.66
2024-02-28T22:22:44.103Z,101269.19
2024-02-28T22:27:45.576Z,101260.66
2024-02-28T22:32:47.031Z,101252.63
2024-02-28T22:37:48.512Z,101243.69
2024-02-28T22:42:50.443Z,101242.19
2024-02-28T22:47:51.886Z,101240.81
2024-02-28T22:52:53.640Z,101241.88
2024-02-28T22:57:55.083Z,101248.97
2024-02-28T23:02:58.510Z,101246.81
2024-02-28T23:08:00.817Z,101239.25
2024-02-28T23:13:02.648Z,101246.56
2024-02-28T23:18:06.078Z,101245.53
2024-02-28T23:23:07.647Z,101245.41
2024-02-28T23:28:09.501Z,101227.13
2024-02-28T23:33:11.229Z,101230.75
2024-02-28T23:38:12.729Z,101222.78
2024-02-28T23:43:14.251Z,101214.59
2024-02-28T23:48:15.706Z,101215.44
2024-02-28T23:53:17.164Z,101208.69
2024-02-28T23:58:18.725Z,101204.16
